createdAt,value
2022-11-04T00:01:05.704Z,99164.22
2022-11-04T00:06:09.022Z,99181.47
2022-11-04T00:11:30.414Z,99179.47
2022-11-04T00:16:50.507Z,99180.47
2022-11-04T00:22:10.676Z,99141.19
2022-11-04T00:27:32.610Z,99140.72
2022-11-04T00:32:53.285Z,99133.50
2022-11-04T00:37:55.954Z,99126.75
2022-11-04T00:42:59.954Z,99130.97
2022-11-04T00:48:02.667Z,99127.44
2022-11-04T00:53:05.763Z,99124.09
2022-11-04T00:58:09.926Z,99117.53
2022-11-04T01:03:12.584Z,99116.53
2022-11-04T01:08:15.273Z,99112.34
2022-11-04T01:13:19.201Z,99122.91
2022-11-04T01:18:22.079Z,99125.28
2022-11-04T01:23:24.843Z,99123.59
2022-11-04T01:28:28.843Z,99125.16
2022-11-04T01:33:31.611Z,99144.25
2022-11-04T01:38:34.558Z,99130.53
2022-11-04T01:43:50.468Z,99115.94
2022-11-04T01:48:53.198Z,99123.84
2022-11-04T01:53:56.279Z,99125.84
2022-11-04T01:59:03.172Z,99122.84
2022-11-04T02:04:19.752Z,99131.50
2022-11-04T02:09:22.578Z,99116.09
2022-11-04T02:14:26.642Z,99113.84
2022-11-04T02:19:41.506Z,99114.09
2022-11-04T02:24:49.203Z,99117.72
2022-11-04T02:30:04.008Z,99125.09
2022-11-04T02:35:09.533Z,99132.13
2022-11-04T02:40:19.550Z,99141.19
2022-11-04T02:45:25.086Z,99135.09
2022-11-04T02:50:31.222Z,99128.59
2022-11-04T02:55:35.447Z,99125.09
2022-11-04T03:00:39.522Z,99128.38
2022-11-04T03:05:43.511Z,99134.06
2022-11-04T03:10:47.180Z,99135.09
2022-11-04T03:15:52.240Z,99153.91
2022-11-04T03:20:54.968Z,99144.16
2022-11-04T03:25:59.562Z,99141.63
2022-11-04T03:31:04.324Z,99145.63
2022-11-04T03:36:08.696Z,99146.47
2022-11-04T03:41:13.439Z,99151.84
2022-11-04T03:46:17.705Z,99158.50
2022-11-04T03:51:20.462Z,99163.34
2022-11-04T03:56:38.355Z,99161.50
2022-11-04T04:01:46.611Z,99168.72
2022-11-04T04:06:49.244Z,99168.88
2022-11-04T04:11:53.633Z,99174.41
2022-11-04T04:16:57.775Z,99188.81
2022-11-04T04:22:02.747Z,99198.00
2022-11-04T04:27:22.913Z,99217.78
2022-11-04T04:32:27.512Z,99228.97
2022-11-04T04:37:30.135Z,99226.28
2022-11-04T04:43:05.233Z,99216.59
2022-11-04T04:48:09.690Z,99223.91
2022-11-04T04:53:12.399Z,99216.63
2022-11-04T04:58:15.051Z,99218.00
2022-11-04T05:03:18.985Z,99226.91
2022-11-04T05:08:21.643Z,99220.44
2022-11-04T05:13:27.272Z,99217.34
2022-11-04T05:18:31.254Z,99212.41
2022-11-04T05:23:33.973Z,99218.09
2022-11-04T05:28:36.605Z,99215.69
2022-11-04T05:33:40.573Z,99219.81
2022-11-04T05:38:43.324Z,99221.94
2022-11-04T05:43:45.994Z,99230.41
2022-11-04T05:48:50.025Z,99229.56
2022-11-04T05:53:52.827Z,99237.91
2022-11-04T05:58:55.658Z,99252.31
2022-11-04T06:03:59.993Z,99260.53
2022-11-04T06:09:02.660Z,99257.97
2022-11-04T06:14:05.441Z,99263.31
2022-11-04T06:19:13.481Z,99260.78
2022-11-04T06:24:18.651Z,99259.41
2022-11-04T06:29:21.236Z,99262.22
2022-11-04T06:34:25.250Z,99265.19
2022-11-04T06:39:27.826Z,99264.34
2022-11-04T06:44:30.505Z,99256.72
2022-11-04T06:49:35.921Z,99272.66
2022-11-04T06:54:38.601Z,99261.41
2022-11-04T06:59:41.247Z,99268.44
2022-11-04T07:04:45.369Z,99282.28
2022-11-04T07:09:48.108Z,99293.56
2022-11-04T07:14:50.931Z,99294.69
2022-11-04T07:19:54.901Z,99306.41
2022-11-04T07:24:57.558Z,99309.19
2022-11-04T07:30:00.185Z,99288.03
2022-11-04T07:35:04.548Z,99276.47
2022-11-04T07:40:07.836Z,99303.28
2022-11-04T07:45:11.078Z,99315.84
2022-11-04T07:50:18.355Z,99318.09
2022-11-04T07:55:21.031Z,99308.22
2022-11-04T08:00:23.937Z,99315.25
2022-11-04T08:05:28.203Z,99316.09
2022-11-04T08:10:30.842Z,99333.72
2022-11-04T08:15:33.495Z,99351.22
2022-11-04T08:20:38.426Z,99343.63
2022-11-04T08:25:41.116Z,99349.06
2022-11-04T08:30:52.318Z,99348.41
2022-11-04T08:35:56.783Z,99347.44
2022-11-04T08:41:00.264Z,99312.34
2022-11-04T08:46:03.249Z,99315.22
2022-11-04T08:51:08.374Z,99306.56
2022-11-04T08:56:12.637Z,99281.81
2022-11-04T09:01:15.299Z,99273.38
2022-11-04T09:06:20.774Z,99274.56
2022-11-04T09:11:23.556Z,99278.66
2022-11-04T09:16:26.219Z,99287.53
2022-11-04T09:21:30.334Z,99286.53
2022-11-04T09:26:33.000Z,99297.81
2022-11-04T09:31:36.365Z,99298.56
2022-11-04T09:36:40.942Z,99301.09
2022-11-04T09:41:52.304Z,99301.09
2022-11-04T09:46:57.840Z,99303.19
2022-11-04T09:52:02.045Z,99324.59
2022-11-04T09:57:04.950Z,99340.28
2022-11-04T10:02:22.346Z,99353.09
2022-11-04T10:07:35.567Z,99358.63
2022-11-04T10:12:51.244Z,99367.47
2022-11-04T10:18:00.458Z,99373.03
2022-11-04T10:23:09.105Z,99373.22
2022-11-04T10:28:12.150Z,99374.50
2022-11-04T10:33:20.342Z,99376.78
2022-11-04T10:38:27.308Z,99381.03
2022-11-04T10:43:33.592Z,99385.38
2022-11-04T10:48:38.815Z,99378.91
2022-11-04T10:53:43.187Z,99377.72
2022-11-04T10:58:52.281Z,99391.09
2022-11-04T11:03:55.388Z,99396.78
2022-11-04T11:09:00.282Z,99386.44
2022-11-04T11:14:02.956Z,99387.47
2022-11-04T11:19:24.944Z,99387.09
2022-11-04T11:24:30.722Z,99394.38
2022-11-04T11:29:40.065Z,99379.06
2022-11-04T11:34:47.029Z,99382.16
2022-11-04T11:39:51.032Z,99394.00
2022-11-04T11:44:55.085Z,99394.25
2022-11-04T11:50:06.607Z,99389.88
2022-11-04T11:55:14.465Z,99393.53
2022-11-04T12:00:37.602Z,99400.72
2022-11-04T12:11:10.145Z,99415.44
2022-11-04T12:16:24.944Z,99417.88
2022-11-04T12:21:33.391Z,99428.63
2022-11-04T12:26:39.579Z,99411.88
2022-11-04T12:31:46.332Z,99409.91
2022-11-04T12:36:59.191Z,99399.22
2022-11-04T12:42:29.655Z,99393.59
2022-11-04T12:47:35.960Z,99393.66
2022-11-04T12:52:48.025Z,99372.75
2022-11-04T12:57:54.585Z,99370.22
2022-11-04T13:02:58.800Z,99373.31
2022-11-04T13:08:07.580Z,99378.66
2022-11-04T13:13:16.363Z,99381.94
2022-11-04T13:18:20.277Z,99386.16
2022-11-04T13:23:28.836Z,99399.28
2022-11-04T13:28:32.894Z,99394.66
2022-11-04T13:33:39.688Z,99404.38
2022-11-04T13:38:44.493Z,99408.91
2022-11-04T13:43:50.431Z,99412.28
2022-11-04T13:48:56.307Z,99408.47
2022-11-04T13:53:59.087Z,99421.47
2022-11-04T13:59:06.610Z,99417.50
2022-11-04T14:04:28.174Z,99432.47
2022-11-04T14:09:50.288Z,99450.69
2022-11-04T14:14:55.463Z,99450.38
2022-11-04T14:19:58.978Z,99452.22
2022-11-04T14:25:02.454Z,99445.63
2022-11-04T14:30:07.989Z,99461.97
2022-11-04T14:35:17.900Z,99447.56
2022-11-04T14:40:25.901Z,99435.84
2022-11-04T14:45:32.768Z,99448.03
2022-11-04T14:50:35.716Z,99448.97
2022-11-04T14:55:38.358Z,99473.72
2022-11-04T15:00:52.413Z,99470.63
2022-11-04T15:06:00.316Z,99485.75
2022-11-04T15:11:11.313Z,99486.59
2022-11-04T15:16:20.883Z,99477.41
2022-11-04T15:21:23.772Z,99478.38
2022-11-04T15:26:30.424Z,99491.41
2022-11-04T15:31:35.539Z,99506.38
2022-11-04T15:36:39.758Z,99513.44
2022-11-04T15:42:00.610Z,99514.28
2022-11-04T15:47:10.213Z,99517.13
2022-11-04T15:52:17.368Z,99523.19
2022-11-04T15:57:20.967Z,99532.78
2022-11-04T16:02:27.687Z,99537.06
2022-11-04T16:07:31.695Z,99538.59
2022-11-04T16:12:36.326Z,99539.75
2022-11-04T16:17:44.737Z,99551.72
2022-11-04T16:22:47.463Z,99555.00
2022-11-04T16:27:50.191Z,99556.81
2022-11-04T16:32:54.838Z,99557.94
2022-11-04T16:37:57.745Z,99557.81
2022-11-04T16:43:00.398Z,99555.69
2022-11-04T16:48:04.673Z,99569.13
2022-11-04T16:53:07.666Z,99565.44
2022-11-04T16:58:13.252Z,99570.53
2022-11-04T17:03:21.837Z,99578.44
2022-11-04T17:08:24.786Z,99576.03
2022-11-04T17:13:29.833Z,99592.69
2022-11-04T17:18:37.449Z,99586.34
2022-11-04T17:23:40.101Z,99587.00
2022-11-04T17:28:42.847Z,99581.59
2022-11-04T17:33:46.882Z,99577.72
2022-11-04T17:38:49.708Z,99576.97
2022-11-04T17:44:01.632Z,99588.97
2022-11-04T17:49:07.777Z,99594.97
2022-11-04T17:54:10.695Z,99590.44
2022-11-04T17:59:13.784Z,99593.56
2022-11-04T18:04:19.181Z,99592.31
2022-11-04T18:09:21.887Z,99595.88
2022-11-04T18:14:24.754Z,99583.81
2022-11-04T18:19:28.853Z,99590.66
2022-11-04T18:24:31.631Z,99602.53
2022-11-04T18:29:34.584Z,99596.34
2022-11-04T18:34:38.752Z,99602.72
2022-11-04T18:39:42.384Z,99600.75
2022-11-04T18:44:45.016Z,99609.78
2022-11-04T18:49:49.572Z,99612.63
2022-11-04T18:54:52.236Z,99611.78
2022-11-04T18:59:55.167Z,99613.22
2022-11-04T19:04:59.150Z,99617.75
2022-11-04T19:10:01.760Z,99625.81
2022-11-04T19:15:05.919Z,99626.56
2022-11-04T19:20:12.667Z,99628.50
2022-11-04T19:25:15.610Z,99634.31
2022-11-04T19:30:19.335Z,99644.50
2022-11-04T19:35:23.576Z,99647.03
2022-11-04T19:40:26.377Z,99656.81
2022-11-04T19:45:29.036Z,99654.13
2022-11-04T19:50:33.201Z,99662.72
2022-11-04T19:55:36.261Z,99674.19
2022-11-04T20:00:39.343Z,99686.66
2022-11-04T20:05:43.532Z,99687.50
2022-11-04T20:10:46.132Z,99692.03
2022-11-04T20:15:48.837Z,99700.94
2022-11-04T20:20:52.970Z,99709.72
2022-11-04T20:25:55.749Z,99716.22
2022-11-04T20:30:58.388Z,99717.91
2022-11-04T20:36:05.307Z,99723.28
2022-11-04T20:41:09.019Z,99731.34
2022-11-04T20:46:12.604Z,99755.41
2022-11-04T20:51:17.582Z,99754.81
2022-11-04T20:56:20.654Z,99764.47
2022-11-04T21:01:26.497Z,99765.47
2022-11-04T21:06:30.709Z,99774.38
2022-11-04T21:11:35.098Z,99773.53
2022-11-04T21:16:37.815Z,99775.91
2022-11-04T21:21:42.858Z,99775.06
2022-11-04T21:26:45.594Z,99770.53
2022-11-04T21:31:48.519Z,99780.44
2022-11-04T21:36:53.096Z,99782.28
2022-11-04T21:41:55.724Z,99787.38
2022-11-04T21:46:58.388Z,99784.84
2022-11-04T21:52:02.386Z,99781.00
2022-11-04T21:57:04.995Z,99781.16
2022-11-04T22:02:07.989Z,99793.59
2022-11-04T22:07:12.057Z,99784.84
2022-11-04T22:12:14.672Z,99792.19
2022-11-04T22:17:17.584Z,99794.44
2022-11-04T22:22:21.514Z,99794.72
2022-11-04T22:27:24.156Z,99799.09
2022-11-04T22:32:27.634Z,99798.97
2022-11-04T22:37:31.630Z,99808.00
2022-11-04T22:42:34.576Z,99812.00
2022-11-04T22:47:37.447Z,99811.13
2022-11-04T22:52:41.476Z,99816.38
2022-11-04T22:57:44.082Z,99820.06
2022-11-04T23:02:46.958Z,99829.22
2022-11-04T23:07:51.090Z,99829.34
2022-11-04T23:13:11.886Z,99828.50
2022-11-04T23:18:32.135Z,99840.09
2022-11-04T23:23:53.735Z,99834.88
2022-11-04T23:29:13.728Z,99834.03
2022-11-04T23:34:33.814Z,99838.69
2022-11-04T23:39:37.794Z,99841.25
2022-11-04T23:44:57.959Z,99846.91
2022-11-04T23:50:18.456Z,99858.75
2022-11-04T23:55:39.919Z,99861.19
